Metar Cercanos

 

LEPA - Palma De Mallorc, Spain
Distance from station: ONO 38km
Actualización: Thu, 21-Jan-2021 9:30pm CET
Few Clouds
Few Clouds
 Viento del SO
Viento: SO 11 km/h
Temperatura: 15°C
Rocío: 12°C
Humedad: 82%
Barómetro: 1014 hPa
Clouds: Few Clouds
Visibility: 10 km
Cloud details: Few Clouds 853 m
2021/01/21 20:30 LEPA 212030Z 23006KT 9999 FEW028 15/12 Q1014 NOSIG
LEMH - Mahon/Menorca Is, Spain
Distance from station: ENE 105km
Actualización: Thu, 21-Jan-2021 9:30pm CET
Despejado
Despejado
 Viento del SO
Viento: SO 31 km/h
Temperatura: 14°C
Rocío: 12°C
Humedad: 88%
Barómetro: 1013 hPa
Resumen: Despejado
Visibility: greater than 10 km
2021/01/21 20:30 LEMH 212030Z 23017KT 200V270 CAVOK 14/12 Q1013
 
LEIB - Ibiza/Es Codola, Spain
Distance from station: OSO 165km
Actualización: Thu, 21-Jan-2021 9:30pm CET
Despejado
Despejado
 Viento del OSO
Viento: OSO 22 km/h
Temperatura: 14°C
Rocío: 13°C
Humedad: 94%
Barómetro: 1015 hPa
Resumen: Despejado
Visibility: greater than 10 km
2021/01/21 20:30 LEIB 212030Z 25012KT CAVOK 14/13 Q1015 NOSIG
LEBL - Barcelona Airpor, Spain
Distance from station: NNO 225km
Actualización: Thu, 21-Jan-2021 9:30pm CET
Few Clouds
Few Clouds
 Viento del O
Viento: O 11 km/h
Temperatura: 12°C
Rocío: 11°C
Humedad: 94%
Barómetro: 1009 hPa
Clouds: Few Clouds
Visibility: 10 km
Cloud details: Few Clouds 914 m
2021/01/21 20:30 LEBL 212030Z 28006KT 9999 FEW030 12/11 Q1009 NOSIG
 
LEVC - Valencia (civ/Mi, Spain
Distance from station: NO 188km
Actualización: Thu, 21-Jan-2021 9:30pm CET
Muy nuboso
Muy nuboso
 Viento del SO
Viento: SO 19 km/h
Temperatura: 16°C
Rocío: 9°C
Humedad: 63%
Barómetro: 1013 hPa
Clouds: Muy nuboso
Visibility: 10 km
Cloud details: Muy nuboso 1372 m
2021/01/21 20:30 LEVC 212030Z 23010KT 190V250 9999 BKN045 16/09 Q1013 NOSIG
LEGE - Gerona/Costa Bra, Spain
Distance from station: N 276km
Actualización: Thu, 21-Jan-2021 9:30pm CET
Despejado
Despejado
 Viento del SSO
Viento: SSO 11 km/h
Temperatura: 12°C
Rocío: 5°C
Humedad: 63%
Barómetro: 1008 hPa
Resumen: Despejado
Visibility: greater than 10 km
2021/01/21 20:30 LEGE 212030Z 20006KT 150V260 CAVOK 12/05 Q1008
 
LEAL - Alicante/El Alte, Spain
Distance from station: OSO 344km
Actualización: Thu, 21-Jan-2021 9:30pm CET
Despejado
Despejado
 Viento del SSO
Viento: SSO 6 km/h
Temperatura: 11°C
Rocío: 5°C
Humedad: 67%
Barómetro: 1016 hPa
Resumen: Despejado
Visibility: greater than 10 km
2021/01/21 20:30 LEAL 212030Z 20003KT 090V250 CAVOK 11/05 Q1016 NOSIG
LEAM - Almeria Airport, Spain
Distance from station: SSO 56km
Actualización: Thu, 21-Jan-2021 9:30pm CET
Few Clouds
Few Clouds
 Viento del OSO
Viento: OSO 24 km/h
Temperatura: 15°C
Rocío: 11°C
Humedad: 77%
Barómetro: 1017 hPa
Clouds: Few Clouds
Visibility: 10 km
Cloud details: Few Clouds 610 m
2021/01/21 20:30 LEAM 212030Z 25013KT 9999 FEW020 15/11 Q1017
 
LEZG - Zaragoza (mil/Ci, Spain
Distance from station: NO 431km
Actualización: Thu, 21-Jan-2021 9:30pm CET
Parcialmente nuboso
Parcialmente nuboso
 Viento del O
Viento: O 9 km/h
Temperatura: 13°C
Rocío: 7°C
Humedad: 67%
Barómetro: 1008 hPa
Clouds: Parcialmente nuboso
Visibility: 10 km
Cloud details: Few Clouds 1829 m
Parcialmente nuboso 2134 m
2021/01/21 20:30 LEZG 212030Z 26005KT 230V290 9999 FEW060 SCT070 13/07 Q1008
LEMD - Madrid/Barajas, Spain
Distance from station: ONO 234km
Actualización: Thu, 21-Jan-2021 9:53pm CET
Heavy drizzle, Muy nuboso
Heavy drizzle, Muy nuboso
 Viento del S
Viento: S 15 km/h
Temperatura: 9°C
Sensación frio: 7°C
Rocío: 8°C
Humedad: 94%
Barómetro: 1012 hPa
Resumen: Heavy Drizzle
Clouds: Muy nuboso
Visibility: 5 km
Cloud details: Parcialmente nuboso 152 m
Muy nuboso 305 m
2021/01/21 20:53 LEMD 212053Z 17008KT 5000 +DZ SCT005 BKN010 09/08 Q1012 NOSIG
 
LEGR - Granada Airport, Spain
Distance from station: OSO 62km
Actualización: Thu, 21-Jan-2021 9:30pm CET
Muy nuboso
Muy nuboso
 Viento del calm
Viento: Calma
Temperatura: 10°C
Rocío: 9°C
Humedad: 94%
Barómetro: 1021 hPa
Clouds: Muy nuboso
Visibility: 10 km
Cloud details: Few Clouds 457 m
Muy nuboso 1219 m
2021/01/21 20:30 LEGR 212030Z 00000KT 9999 FEW015 BKN040 10/09 Q1021
LEMG - Malaga (civ/Mil), Spain
Distance from station: OSO 227km
Actualización: Thu, 21-Jan-2021 9:30pm CET
Muy nuboso
Muy nuboso
 Viento del O
Viento: O 7 km/h
Temperatura: 13°C
Rocío: 11°C
Humedad: 88%
Barómetro: 1021 hPa
Clouds: Muy nuboso
Visibility: 10 km
Cloud details: Few Clouds 914 m
Parcialmente nuboso 1524 m
Muy nuboso 2286 m
2021/01/21 20:30 LEMG 212030Z 27004KT 210V300 9999 FEW030 SCT050 BKN075 13/11 Q1021 NOSIG
 
LEZL - Sevilla (civ/Mil, Spain
Distance from station: S 318km
Actualización: Thu, 21-Jan-2021 9:30pm CET
Parcialmente nuboso
Parcialmente nuboso
 Viento del SO
Viento: SO 20 km/h
Temperatura: 15°C
Rocío: 13°C
Humedad: 88%
Barómetro: 1020 hPa
Clouds: Parcialmente nuboso
Visibility: 10 km
Cloud details: Few Clouds 671 m
Parcialmente nuboso 1036 m
2021/01/21 20:30 LEZL 212030Z 22011KT 9999 FEW022 SCT034 15/13 Q1020 NOSIG
LEVT - Vitoria, Spain
Distance from station: NO 226km
Actualización: Thu, 21-Jan-2021 9:30pm CET
Few Clouds
Few Clouds
 Viento del SO
Viento: SO 24 km/h
Temperatura: 12°C
Rocío: 6°C
Humedad: 67%
Barómetro: 1004 hPa
Clouds: Few Clouds
Visibility: 10 km
Cloud details: Few Clouds 1372 m
2021/01/21 20:30 LEVT 212030Z 23013KT 200V260 9999 FEW045 12/06 Q1004
 
LEBB - Bilbao/Sondica, Spain
Distance from station: NNO 235km
Actualización: Thu, 21-Jan-2021 9:30pm CET
Despejado
Despejado
 Viento del SO
Viento: SO 31 km/h, Racha: 50 km/h
Temperatura: 17°C
Rocío: 6°C
Humedad: 49%
Barómetro: 1001 hPa
Resumen: Despejado
Visibility: greater than 10 km
2021/01/21 20:30 LEBB 212030Z 22017G27KT 170V260 CAVOK 17/06 Q1001 NOSIG
LESO - San Sebastian/Fu, Spain
Distance from station: N 231km
Actualización: Thu, 21-Jan-2021 9:30pm CET
Despejado
Despejado
 Viento del SO
Viento: SO 22 km/h
Temperatura: 17°C
Rocío: 6°C
Humedad: 49%
Barómetro: 1002 hPa
Resumen: Despejado
Visibility: greater than 10 km
2021/01/21 20:30 LESO 212030Z 22012KT 180V260 CAVOK 17/06 Q1002
 
LEVD - Valladolid(Mil/C, Spain
Distance from station: ONO 239km
Actualización: Thu, 21-Jan-2021 9:30pm CET
Few Clouds
Few Clouds
 Viento del OSO
Viento: OSO 31 km/h
Temperatura: 8°C
Sensación frio: 3°C
Rocío: 7°C
Humedad: 93%
Barómetro: 1008 hPa
Clouds: Few Clouds
Visibility: 10 km
Cloud details: Few Clouds 457 m
2021/01/21 20:30 LEVD 212030Z 24017KT 9999 FEW015 08/07 Q1008
LESA - Salamanca (civ/M, Spain
Distance from station: ONO 349km
Actualización: Thu, 21-Jan-2021 9:30pm CET
Few Clouds
Few Clouds
 Viento del OSO
Viento: OSO 22 km/h
Temperatura: 8°C
Sensación frio: 4°C
Rocío: 7°C
Humedad: 93%
Barómetro: 1009 hPa
Clouds: Few Clouds
Visibility: 10 km
Cloud details: Few Clouds 1280 m
2021/01/21 20:30 LESA 212030Z AUTO 25012KT 9999 FEW042 08/07 Q1009
 
LEXJ - Santander/Paraya, Spain
Distance from station: NNO 247km
Actualización: Thu, 21-Jan-2021 9:30pm CET
Despejado
Despejado
 Viento del SO
Viento: SO 17 km/h
Temperatura: 17°C
Rocío: 2°C
Humedad: 37%
Barómetro: 1000 hPa
Resumen: Despejado
Visibility: greater than 10 km
2021/01/21 20:30 LEXJ 212030Z 22009KT 160V260 CAVOK 17/02 Q1000
LEAS - Asturias/Aviles, Spain
Distance from station: NO 214km
Actualización: Thu, 21-Jan-2021 9:30pm CET
Despejado
Despejado
 Viento del OSO
Viento: OSO 37 km/h, Racha: 59 km/h
Temperatura: 14°C
Rocío: 4°C
Humedad: 51%
Barómetro: 999 hPa
Resumen: Despejado
Visibility: greater than 10 km
2021/01/21 20:30 LEAS 212030Z 25020G32KT 220V300 CAVOK 14/04 Q0999 NOSIG
 
LECO - La Coruna/Alvedr, Spain
Distance from station: ONO 222km
Actualización: Thu, 21-Jan-2021 9:30pm CET
Lluvia, Muy nuboso
Lluvia, Muy nuboso
 Viento del SO
Viento: SO 17 km/h
Temperatura: 12°C
Rocío: 9°C
Humedad: 82%
Barómetro: 1002 hPa
Resumen: Lluvia
Clouds: Muy nuboso
Visibility: 9 km
Cloud details: Muy nuboso 1067 m
2021/01/21 20:30 LECO 212030Z 22009KT 170V240 9000 RA BKN035 12/09 Q1002 NOSIG
LEVX - Vigo/Peinador, Spain
Distance from station: O 214km
Actualización: Thu, 21-Jan-2021 9:43pm CET
Lluvia, Muy nuboso
Lluvia, Muy nuboso
 Viento del SSO
Viento: SSO 24 km/h
Temperatura: 11°C
Rocío: 10°C
Humedad: 94%
Barómetro: 1005 hPa
Resumen: Lluvia
Clouds: Muy nuboso
Visibility: 4 km
Cloud details: Parcialmente nuboso 671 m
Muy nuboso 945 m
Muy nuboso 1402 m
2021/01/21 20:43 LEVX 212043Z 20013KT 170V230 4000 RA SCT022 BKN031 BKN046 11/10 Q1005 TEMPO 2000 BKN010